createdAt,value
2023-04-13T00:01:11.693Z,98740.97
2023-04-13T00:03:39.608Z,98742.50
2023-04-13T00:06:11.100Z,98748.78
2023-04-13T00:08:38.873Z,98746.41
2023-04-13T00:11:07.888Z,98749.97
2023-04-13T00:13:41.527Z,98748.59
2023-04-13T00:16:13.924Z,98749.34
2023-04-13T00:18:41.008Z,98751.38
2023-04-13T00:21:08.416Z,98752.16
2023-04-13T00:23:36.389Z,98745.66
2023-04-13T00:26:03.609Z,98753.84
2023-04-13T00:28:30.621Z,98753.34
2023-04-13T00:30:59.345Z,98757.81
2023-04-13T00:33:26.700Z,98760.72
2023-04-13T00:35:53.672Z,98750.84
2023-04-13T00:38:20.554Z,98746.94
2023-04-13T00:40:47.567Z,98742.72
2023-04-13T00:43:15.036Z,98737.50
2023-04-13T00:45:43.568Z,98742.22
2023-04-13T00:48:11.096Z,98745.16
2023-04-13T00:50:39.779Z,98748.91
2023-04-13T00:53:10.954Z,98754.34
2023-04-13T00:55:42.145Z,98756.81
2023-04-13T00:58:09.747Z,98758.56
2023-04-13T01:00:43.219Z,98751.84
2023-04-13T01:03:11.506Z,98755.50
2023-04-13T01:05:51.874Z,98757.03
2023-04-13T01:08:36.968Z,98762.31
2023-04-13T01:11:19.904Z,98764.59
2023-04-13T01:13:56.514Z,98762.94
2023-04-13T01:16:33.155Z,98766.00
2023-04-13T01:21:54.566Z,98767.22
2023-04-13T01:24:41.916Z,98769.56
2023-04-13T01:27:20.636Z,98769.22
2023-04-13T01:29:50.818Z,98761.88
2023-04-13T01:32:18.192Z,98761.13
2023-04-13T01:34:45.749Z,98757.00
2023-04-13T01:37:13.084Z,98762.53
2023-04-13T01:39:41.147Z,98763.91
2023-04-13T01:42:19.259Z,98768.81
2023-04-13T01:44:49.390Z,98769.28
2023-04-13T01:47:20.633Z,98777.28
2023-04-13T01:50:25.743Z,98777.44
2023-04-13T01:53:08.237Z,98779.88
2023-04-13T01:55:42.052Z,98787.28
2023-04-13T01:58:13.192Z,98774.94
2023-04-13T02:00:41.894Z,98779.59
2023-04-13T02:03:13.359Z,98777.09
2023-04-13T02:05:40.665Z,98771.06
2023-04-13T02:08:09.302Z,98777.66
2023-04-13T02:10:42.942Z,98784.25
2023-04-13T02:13:10.268Z,98785.66
2023-04-13T02:15:38.842Z,98787.63
2023-04-13T02:18:07.329Z,98789.69
2023-04-13T02:20:45.545Z,98789.16
2023-04-13T02:23:15.130Z,98795.47
2023-04-13T02:25:47.202Z,98796.91
2023-04-13T02:28:17.842Z,98798.69
2023-04-13T02:30:47.088Z,98805.22
2023-04-13T02:33:14.179Z,98802.84
2023-04-13T02:35:41.338Z,98798.56
2023-04-13T02:38:10.722Z,98807.03
2023-04-13T02:40:38.933Z,98804.44
2023-04-13T02:43:29.484Z,98803.59
2023-04-13T02:45:58.497Z,98795.13
2023-04-13T02:48:30.684Z,98794.53
2023-04-13T02:50:57.686Z,98807.00
2023-04-13T02:53:29.804Z,98813.66
2023-04-13T02:56:02.307Z,98813.13
2023-04-13T02:58:31.752Z,98813.94
2023-04-13T03:01:02.634Z,98817.28
2023-04-13T03:03:30.604Z,98818.91
2023-04-13T03:05:58.771Z,98814.84
2023-04-13T03:08:37.280Z,98821.53
2023-04-13T03:11:11.275Z,98814.72
2023-04-13T03:13:47.197Z,98813.47
2023-04-13T03:16:17.727Z,98817.63
2023-04-13T03:18:45.815Z,98809.66
2023-04-13T03:21:14.224Z,98818.25
2023-04-13T03:23:49.605Z,98814.72
2023-04-13T03:26:17.945Z,98817.13
2023-04-13T03:28:44.890Z,98821.75
2023-04-13T03:31:12.066Z,98822.47
2023-04-13T03:33:39.232Z,98818.81
2023-04-13T03:36:08.527Z,98829.16
2023-04-13T03:38:37.496Z,98828.47
2023-04-13T03:41:04.762Z,98820.47
2023-04-13T03:43:33.383Z,98825.03
2023-04-13T03:46:07.955Z,98831.13
2023-04-13T03:48:35.940Z,98843.47
2023-04-13T03:51:05.760Z,98842.91
2023-04-13T03:53:44.702Z,98843.44
2023-04-13T03:56:11.803Z,98843.38
2023-04-13T03:58:39.596Z,98842.22
2023-04-13T04:01:08.129Z,98848.53
2023-04-13T04:03:44.369Z,98844.88
2023-04-13T04:06:11.954Z,98847.03
2023-04-13T04:08:43.910Z,98849.81
2023-04-13T04:11:22.584Z,98842.00
2023-04-13T04:13:49.694Z,98851.91
2023-04-13T04:16:16.755Z,98858.78
2023-04-13T04:18:49.709Z,98862.28
2023-04-13T04:21:21.832Z,98863.72
2023-04-13T04:23:49.311Z,98858.81
2023-04-13T04:26:17.861Z,98875.50
2023-04-13T04:29:02.554Z,98872.03
2023-04-13T04:31:36.755Z,98880.34
2023-04-13T04:34:06.751Z,98882.78
2023-04-13T04:36:36.385Z,98882.22
2023-04-13T04:39:04.757Z,98878.94
2023-04-13T04:41:39.743Z,98893.84
2023-04-13T04:44:09.138Z,98898.53
2023-04-13T04:46:41.744Z,98903.03
2023-04-13T04:49:14.052Z,98887.13
2023-04-13T04:51:41.257Z,98896.88
2023-04-13T04:54:09.544Z,98895.50
2023-04-13T04:56:38.300Z,98895.41
2023-04-13T04:59:05.806Z,98901.78
2023-04-13T05:01:43.504Z,98897.59
2023-04-13T05:04:13.118Z,98903.84
2023-04-13T05:06:43.321Z,98899.19
2023-04-13T05:09:15.216Z,98897.19
2023-04-13T05:11:48.018Z,98897.97
2023-04-13T05:14:16.131Z,98905.25
2023-04-13T05:16:45.747Z,98904.69
2023-04-13T05:19:37.111Z,98910.56
2023-04-13T05:22:13.669Z,98912.47
2023-04-13T05:24:47.322Z,98916.63
2023-04-13T05:27:16.113Z,98922.19
2023-04-13T05:29:44.556Z,98922.06
2023-04-13T05:32:15.620Z,98920.09
2023-04-13T05:34:43.399Z,98924.22
2023-04-13T05:37:20.372Z,98932.81
2023-04-13T05:39:47.506Z,98925.09
2023-04-13T05:42:19.104Z,98927.25
2023-04-13T05:44:47.199Z,98927.84
2023-04-13T05:47:18.347Z,98932.56
2023-04-13T05:49:47.077Z,98934.44
2023-04-13T05:52:15.665Z,98940.22
2023-04-13T05:54:46.383Z,98934.88
2023-04-13T05:57:13.348Z,98936.81
2023-04-13T05:59:46.058Z,98941.03
2023-04-13T06:02:15.259Z,98942.75
2023-04-13T06:04:43.307Z,98941.81
2023-04-13T06:07:11.119Z,98940.25
2023-04-13T06:09:40.141Z,98939.94
2023-04-13T06:12:07.972Z,98942.56
2023-04-13T06:14:35.011Z,98939.09
2023-04-13T06:17:01.970Z,98937.16
2023-04-13T06:19:29.298Z,98931.91
2023-04-13T06:21:56.373Z,98934.84
2023-04-13T06:24:23.665Z,98939.44
2023-04-13T06:26:51.340Z,98940.91
2023-04-13T06:29:18.602Z,98939.84
2023-04-13T06:31:56.588Z,98937.06
2023-04-13T06:34:23.594Z,98941.69
2023-04-13T06:36:50.602Z,98937.81
2023-04-13T06:39:19.591Z,98933.38
2023-04-13T06:41:55.006Z,98937.66
2023-04-13T06:44:42.992Z,98935.13
2023-04-13T06:47:10.553Z,98934.13
2023-04-13T06:49:37.594Z,98924.09
2023-04-13T06:52:05.216Z,98937.13
2023-04-13T06:54:32.343Z,98944.13
2023-04-13T06:57:05.470Z,98938.38
2023-04-13T06:59:33.196Z,98937.56
2023-04-13T07:02:00.313Z,98935.53
2023-04-13T07:04:29.702Z,98937.84
2023-04-13T07:06:58.889Z,98933.78
2023-04-13T07:09:26.226Z,98935.91
2023-04-13T07:11:53.410Z,98935.50
2023-04-13T07:14:21.185Z,98935.88
2023-04-13T07:16:48.642Z,98940.16
2023-04-13T07:19:17.000Z,98937.53
2023-04-13T07:21:44.114Z,98939.69
2023-04-13T07:24:11.238Z,98940.56
2023-04-13T07:26:41.920Z,98944.34
2023-04-13T07:29:13.503Z,98941.69
2023-04-13T07:31:44.642Z,98937.25
2023-04-13T07:34:12.348Z,98939.25
2023-04-13T07:36:44.372Z,98938.13
2023-04-13T07:39:15.064Z,98929.59
2023-04-13T07:41:46.571Z,98925.06
2023-04-13T07:44:17.890Z,98928.13
2023-04-13T07:46:47.480Z,98925.13
2023-04-13T07:49:15.022Z,98925.41
2023-04-13T07:51:43.094Z,98926.28
2023-04-13T07:54:10.573Z,98920.16
2023-04-13T07:56:37.892Z,98912.63
2023-04-13T07:59:07.112Z,98918.13
2023-04-13T08:01:35.618Z,98926.59
2023-04-13T08:04:03.704Z,98927.84
2023-04-13T08:06:32.233Z,98923.06
2023-04-13T08:09:01.680Z,98923.38
2023-04-13T08:11:28.701Z,98918.28
2023-04-13T08:14:02.627Z,98914.00
2023-04-13T08:16:34.391Z,98904.94
2023-04-13T08:19:04.250Z,98911.00
2023-04-13T08:21:37.455Z,98911.13
2023-04-13T08:24:08.031Z,98903.38
2023-04-13T08:26:35.245Z,98899.75
2023-04-13T08:29:02.413Z,98898.41
2023-04-13T08:31:29.734Z,98894.09
2023-04-13T08:34:01.532Z,98896.66
2023-04-13T08:36:31.906Z,98886.09
2023-04-13T08:39:06.049Z,98888.78
2023-04-13T08:41:41.935Z,98889.25
2023-04-13T08:44:13.575Z,98897.63
2023-04-13T08:46:47.382Z,98890.44
2023-04-13T08:49:18.755Z,98898.16
2023-04-13T08:52:11.046Z,98893.97
2023-04-13T08:54:40.492Z,98886.81
2023-04-13T08:57:16.409Z,98892.06
2023-04-13T08:59:44.918Z,98889.03
2023-04-13T09:02:15.162Z,98888.53
2023-04-13T09:04:56.003Z,98880.94
2023-04-13T09:07:29.602Z,98877.53
2023-04-13T09:10:01.687Z,98882.47
2023-04-13T09:12:33.588Z,98889.00
2023-04-13T09:15:00.774Z,98889.41
2023-04-13T09:17:32.582Z,98881.06
2023-04-13T09:20:18.388Z,98873.91
2023-04-13T09:22:45.821Z,98878.50
2023-04-13T09:25:29.365Z,98877.84
2023-04-13T09:27:57.257Z,98878.97
2023-04-13T09:30:29.937Z,98875.19
2023-04-13T09:33:06.041Z,98868.31
2023-04-13T09:35:34.390Z,98872.81
2023-04-13T09:38:01.506Z,98872.03
2023-04-13T09:40:29.423Z,98867.41
2023-04-13T09:43:04.732Z,98870.38
2023-04-13T09:45:36.414Z,98859.59
2023-04-13T09:48:05.407Z,98856.31
2023-04-13T09:50:34.868Z,98861.41
2023-04-13T09:53:06.822Z,98856.47
2023-04-13T09:55:37.192Z,98845.31
2023-04-13T09:58:17.803Z,98846.25
2023-04-13T10:00:46.652Z,98850.00
2023-04-13T10:03:16.092Z,98845.59
2023-04-13T10:05:58.968Z,98848.66
2023-04-13T10:08:37.580Z,98843.47
2023-04-13T10:11:12.819Z,98848.97
2023-04-13T10:14:02.783Z,98842.81
2023-04-13T10:17:05.647Z,98833.72
2023-04-13T10:19:56.463Z,98829.75
2023-04-13T10:22:25.023Z,98821.63
2023-04-13T10:24:53.091Z,98821.84
2023-04-13T10:29:50.077Z,98812.72
2023-04-13T10:32:35.327Z,98809.25
2023-04-13T10:35:11.844Z,98799.53
2023-04-13T10:37:40.702Z,98802.44
2023-04-13T10:40:10.457Z,98800.25
2023-04-13T10:45:24.194Z,98804.53
2023-04-13T10:47:51.584Z,98805.59
2023-04-13T10:50:23.846Z,98797.97
2023-04-13T10:53:07.473Z,98791.84
2023-04-13T10:55:35.408Z,98785.69
2023-04-13T10:58:14.567Z,98780.41
2023-04-13T11:00:47.080Z,98771.78
2023-04-13T11:03:17.015Z,98767.22
2023-04-13T11:05:47.225Z,98768.34
2023-04-13T11:08:21.665Z,98764.66
2023-04-13T11:10:56.522Z,98764.97
2023-04-13T11:13:31.964Z,98763.31
2023-04-13T11:16:07.049Z,98764.66
2023-04-13T11:18:34.136Z,98765.97
2023-04-13T11:21:06.098Z,98760.28
2023-04-13T11:23:36.305Z,98765.38
2023-04-13T11:26:04.785Z,98762.09
2023-04-13T11:28:43.628Z,98756.63
2023-04-13T11:31:13.905Z,98758.63
2023-04-13T11:33:41.163Z,98752.97
2023-04-13T11:36:11.977Z,98739.13
2023-04-13T11:38:43.083Z,98738.69
2023-04-13T11:43:42.021Z,98729.31
2023-04-13T11:46:13.717Z,98724.44
2023-04-13T11:48:43.613Z,98730.78
2023-04-13T11:51:11.559Z,98725.94
2023-04-13T11:53:40.410Z,98726.25
2023-04-13T11:56:09.936Z,98729.25
2023-04-13T11:58:39.562Z,98722.59
2023-04-13T12:01:25.121Z,98718.97
2023-04-13T12:04:04.690Z,98717.63
2023-04-13T12:06:45.947Z,98720.38
2023-04-13T12:09:17.636Z,98714.56
2023-04-13T12:11:52.135Z,98715.31
2023-04-13T12:19:28.292Z,98705.59
2023-04-13T12:21:58.091Z,98712.16
2023-04-13T12:24:38.150Z,98708.66
2023-04-13T12:29:40.551Z,98704.41
2023-04-13T12:32:16.441Z,98698.50
2023-04-13T12:34:44.866Z,98703.13
2023-04-13T12:37:12.351Z,98699.59
2023-04-13T12:39:39.576Z,98693.41
2023-04-13T12:42:06.757Z,98691.59
2023-04-13T12:44:34.558Z,98687.31
2023-04-13T12:47:02.564Z,98679.78
2023-04-13T12:49:31.145Z,98685.38
2023-04-13T12:51:58.158Z,98673.44
2023-04-13T12:54:30.843Z,98675.91
2023-04-13T12:57:01.456Z,98670.56
2023-04-13T12:59:31.264Z,98668.06
2023-04-13T13:02:03.099Z,98662.03
2023-04-13T13:04:33.025Z,98660.41
2023-04-13T13:07:02.310Z,98654.59
2023-04-13T13:09:31.204Z,98655.03
2023-04-13T13:12:03.794Z,98663.19
2023-04-13T13:14:33.262Z,98658.78
2023-04-13T13:17:01.310Z,98654.03
2023-04-13T13:19:33.658Z,98656.28
2023-04-13T13:22:01.643Z,98665.50
2023-04-13T13:24:29.111Z,98658.97
2023-04-13T13:29:28.050Z,98648.25
2023-04-13T13:31:57.843Z,98636.00
2023-04-13T13:34:24.974Z,98642.09
2023-04-13T13:36:51.893Z,98647.69
2023-04-13T13:39:21.079Z,98643.91
2023-04-13T13:41:48.281Z,98637.91
2023-04-13T13:44:16.203Z,98644.00
2023-04-13T13:46:43.676Z,98638.84
2023-04-13T13:49:11.928Z,98631.50
2023-04-13T13:51:51.387Z,98639.03
2023-04-13T13:54:22.959Z,98641.00
2023-04-13T13:56:50.056Z,98641.34
2023-04-13T13:59:16.993Z,98634.22
2023-04-13T14:01:44.777Z,98638.13
2023-04-13T14:04:13.291Z,98630.81
2023-04-13T14:06:40.442Z,98633.03
2023-04-13T14:09:07.791Z,98630.75
2023-04-13T14:11:34.947Z,98624.84
2023-04-13T14:14:11.095Z,98627.13
2023-04-13T14:16:48.619Z,98629.09
2023-04-13T14:19:15.687Z,98627.97
2023-04-13T14:21:42.807Z,98630.47
2023-04-13T14:24:09.914Z,98623.31
2023-04-13T14:26:38.311Z,98625.13
2023-04-13T14:29:09.015Z,98622.72
2023-04-13T14:31:39.113Z,98621.38
2023-04-13T14:34:06.266Z,98622.72
2023-04-13T14:36:33.251Z,98614.63
2023-04-13T14:39:00.884Z,98615.66
2023-04-13T14:41:28.061Z,98614.22
2023-04-13T14:43:55.028Z,98621.91
2023-04-13T14:46:22.393Z,98619.91
2023-04-13T14:48:49.578Z,98613.50
2023-04-13T14:51:17.542Z,98606.94
2023-04-13T14:53:44.694Z,98599.25
2023-04-13T14:56:11.775Z,98599.53
2023-04-13T14:58:38.882Z,98600.31
2023-04-13T15:01:17.602Z,98602.38
2023-04-13T15:03:47.821Z,98597.19
2023-04-13T15:06:17.655Z,98594.44
2023-04-13T15:08:45.428Z,98590.88
2023-04-13T15:11:12.463Z,98596.88
2023-04-13T15:13:39.534Z,98593.97
2023-04-13T15:16:07.958Z,98597.69
2023-04-13T15:18:35.506Z,98600.47
2023-04-13T15:21:04.114Z,98597.66
2023-04-13T15:23:32.504Z,98597.06
2023-04-13T15:26:01.226Z,98596.31
2023-04-13T15:28:28.305Z,98592.66
2023-04-13T15:30:55.351Z,98592.19
2023-04-13T15:33:22.470Z,98595.97
2023-04-13T15:35:51.954Z,98588.13
2023-04-13T15:38:18.972Z,98592.25
2023-04-13T15:40:47.274Z,98585.84
2023-04-13T15:43:14.360Z,98585.44
2023-04-13T15:45:41.407Z,98581.63
2023-04-13T15:48:08.560Z,98578.38
2023-04-13T15:50:35.712Z,98579.75
2023-04-13T15:53:02.766Z,98577.31
2023-04-13T15:55:29.877Z,98572.63
2023-04-13T15:57:57.368Z,98579.72
2023-04-13T16:00:26.213Z,98574.84
2023-04-13T16:02:53.472Z,98579.06
2023-04-13T16:05:21.087Z,98574.72
2023-04-13T16:07:48.489Z,98577.44
2023-04-13T16:10:16.893Z,98582.78
2023-04-13T16:12:44.807Z,98581.75
2023-04-13T16:15:12.692Z,98584.84
2023-04-13T16:17:43.876Z,98583.81
2023-04-13T16:20:14.335Z,98586.13
2023-04-13T16:22:43.468Z,98583.63
2023-04-13T16:25:11.765Z,98576.72
2023-04-13T16:27:39.852Z,98570.75
2023-04-13T16:30:13.365Z,98575.25
2023-04-13T16:32:47.100Z,98577.44
2023-04-13T16:35:14.336Z,98575.31
2023-04-13T16:37:42.906Z,98574.78
2023-04-13T16:40:11.479Z,98574.38
2023-04-13T16:42:40.469Z,98576.22
2023-04-13T16:45:14.385Z,98575.06
2023-04-13T16:47:42.573Z,98576.09
2023-04-13T16:50:13.738Z,98574.91
2023-04-13T16:52:40.949Z,98576.16
2023-04-13T16:55:11.575Z,98575.03
2023-04-13T16:57:38.645Z,98579.78
2023-04-13T17:00:15.591Z,98581.91
2023-04-13T17:02:43.120Z,98578.94
2023-04-13T17:05:11.656Z,98593.94
2023-04-13T17:07:40.588Z,98588.81
2023-04-13T17:10:09.220Z,98595.78
2023-04-13T17:12:39.216Z,98595.56
2023-04-13T17:15:28.809Z,98595.31
2023-04-13T17:17:56.064Z,98600.31
2023-04-13T17:20:23.329Z,98613.31
2023-04-13T17:22:51.276Z,98614.91
2023-04-13T17:25:20.580Z,98616.84
2023-04-13T17:27:48.206Z,98610.44
2023-04-13T17:30:15.330Z,98618.81
2023-04-13T17:32:42.905Z,98619.16
2023-04-13T17:35:10.591Z,98619.97
2023-04-13T17:37:37.725Z,98627.22
2023-04-13T17:40:06.911Z,98629.13
2023-04-13T17:42:33.959Z,98628.75
2023-04-13T17:45:01.736Z,98631.41
2023-04-13T17:47:29.781Z,98637.06
2023-04-13T17:49:56.861Z,98636.66
2023-04-13T17:52:24.908Z,98635.91
2023-04-13T17:54:51.902Z,98650.66
2023-04-13T17:57:19.402Z,98655.16
2023-04-13T17:59:47.294Z,98657.75
2023-04-13T18:02:14.961Z,98659.28
2023-04-13T18:04:42.622Z,98662.69
2023-04-13T18:07:09.673Z,98668.31
2023-04-13T18:09:57.680Z,98665.97
2023-04-13T18:12:44.605Z,98665.19
2023-04-13T18:15:13.310Z,98666.25
2023-04-13T18:17:41.701Z,98664.00
2023-04-13T18:20:09.474Z,98668.09
2023-04-13T18:22:36.965Z,98674.13
2023-04-13T18:25:07.770Z,98680.88
2023-04-13T18:27:36.269Z,98679.69
2023-04-13T18:30:06.298Z,98681.50
2023-04-13T18:32:33.373Z,98675.59
2023-04-13T18:35:00.714Z,98681.97
2023-04-13T18:37:27.737Z,98680.03
2023-04-13T18:39:57.575Z,98681.88
2023-04-13T18:42:25.763Z,98682.28
2023-04-13T18:44:52.786Z,98692.22
2023-04-13T18:47:23.895Z,98689.75
2023-04-13T18:49:51.519Z,98690.88
2023-04-13T18:52:18.799Z,98693.22
2023-04-13T18:54:45.876Z,98689.44
2023-04-13T18:57:13.405Z,98694.69
2023-04-13T18:59:41.223Z,98701.06
2023-04-13T19:02:08.528Z,98693.44
2023-04-13T19:04:37.260Z,98693.47
2023-04-13T19:07:08.671Z,98692.50
2023-04-13T19:09:39.362Z,98694.03
2023-04-13T19:12:07.677Z,98692.34
2023-04-13T19:14:40.216Z,98694.00
2023-04-13T19:17:07.389Z,98695.44
2023-04-13T19:19:34.857Z,98693.44
2023-04-13T19:22:03.355Z,98696.91
2023-04-13T19:24:30.685Z,98693.00
2023-04-13T19:26:57.786Z,98691.41
2023-04-13T19:29:30.674Z,98695.13
2023-04-13T19:31:58.401Z,98694.38
2023-04-13T19:34:26.336Z,98693.50
2023-04-13T19:36:59.787Z,98693.03
2023-04-13T19:39:27.405Z,98702.31
2023-04-13T19:41:57.921Z,98698.88
2023-04-13T19:44:25.057Z,98705.19
2023-04-13T19:46:53.869Z,98714.28
2023-04-13T19:49:21.643Z,98710.72
2023-04-13T19:51:50.178Z,98708.78
2023-04-13T19:54:17.393Z,98711.31
2023-04-13T19:56:46.384Z,98705.13
2023-04-13T19:59:15.159Z,98709.91
2023-04-13T20:01:47.210Z,98706.66
2023-04-13T20:04:15.669Z,98710.66
2023-04-13T20:06:50.233Z,98704.97
2023-04-13T20:09:18.517Z,98699.50
2023-04-13T20:11:46.772Z,98698.38
2023-04-13T20:14:16.813Z,98698.31
2023-04-13T20:16:45.942Z,98697.13
2023-04-13T20:19:16.353Z,98690.63
2023-04-13T20:21:46.696Z,98695.63
2023-04-13T20:24:20.036Z,98685.41
2023-04-13T20:26:58.900Z,98689.03
2023-04-13T20:29:40.762Z,98686.59
2023-04-13T20:32:36.248Z,98690.38
2023-04-13T20:35:06.705Z,98687.31
2023-04-13T20:37:40.426Z,98680.63
2023-04-13T20:40:13.682Z,98693.34
2023-04-13T20:42:45.644Z,98682.31
2023-04-13T20:45:15.844Z,98685.53
2023-04-13T20:47:42.944Z,98690.25
2023-04-13T20:50:13.155Z,98691.28
2023-04-13T20:52:43.297Z,98699.94
2023-04-13T20:55:19.312Z,98683.41
2023-04-13T20:58:17.223Z,98696.00
2023-04-13T21:00:56.380Z,98695.91
2023-04-13T21:03:23.899Z,98694.66
2023-04-13T21:05:52.765Z,98704.63
2023-04-13T21:08:21.153Z,98705.97
2023-04-13T21:10:48.130Z,98713.25
2023-04-13T21:13:16.285Z,98707.81
2023-04-13T21:15:44.260Z,98713.78
2023-04-13T21:18:11.604Z,98716.22
2023-04-13T21:20:40.872Z,98712.72
2023-04-13T21:23:08.286Z,98724.88
2023-04-13T21:25:37.373Z,98723.69
2023-04-13T21:28:04.833Z,98722.09
2023-04-13T21:30:31.931Z,98724.97
2023-04-13T21:32:59.514Z,98731.66
2023-04-13T21:35:26.473Z,98734.03
2023-04-13T21:37:54.642Z,98734.31
2023-04-13T21:40:24.810Z,98728.97
2023-04-13T21:42:51.930Z,98726.66
2023-04-13T21:45:19.158Z,98732.59
2023-04-13T21:47:47.178Z,98727.25
2023-04-13T21:50:14.316Z,98742.22
2023-04-13T21:52:41.868Z,98738.88
2023-04-13T21:55:14.744Z,98734.28
2023-04-13T21:57:41.660Z,98735.13
2023-04-13T22:00:09.433Z,98739.59
2023-04-13T22:02:39.366Z,98741.84
2023-04-13T22:05:09.289Z,98740.06
2023-04-13T22:07:42.924Z,98736.25
2023-04-13T22:10:11.532Z,98736.16
2023-04-13T22:12:38.711Z,98739.88
2023-04-13T22:15:06.562Z,98739.88
2023-04-13T22:17:33.580Z,98738.34
2023-04-13T22:20:00.729Z,98749.75
2023-04-13T22:22:27.785Z,98747.59
2023-04-13T22:24:54.970Z,98751.72
2023-04-13T22:27:22.242Z,98760.19
2023-04-13T22:29:49.240Z,98754.72
2023-04-13T22:32:16.793Z,98760.09
2023-04-13T22:34:43.816Z,98751.25
2023-04-13T22:37:12.306Z,98750.22
2023-04-13T22:39:40.064Z,98747.56
2023-04-13T22:42:06.999Z,98751.38
2023-04-13T22:44:36.857Z,98746.63
2023-04-13T22:47:04.638Z,98737.44
2023-04-13T22:49:31.745Z,98737.00
2023-04-13T22:52:00.297Z,98745.94
2023-04-13T22:54:27.365Z,98738.91
2023-04-13T22:56:54.311Z,98736.72
2023-04-13T22:59:21.310Z,98734.09
2023-04-13T23:01:48.342Z,98739.81
2023-04-13T23:04:16.281Z,98729.41
2023-04-13T23:06:43.550Z,98730.16
2023-04-13T23:09:10.516Z,98733.72
2023-04-13T23:11:37.863Z,98728.09
2023-04-13T23:14:06.735Z,98727.69
2023-04-13T23:16:34.545Z,98720.16
2023-04-13T23:19:01.872Z,98730.47
2023-04-13T23:21:29.308Z,98731.06
2023-04-13T23:23:56.189Z,98736.81
2023-04-13T23:26:23.308Z,98743.19
2023-04-13T23:28:50.336Z,98747.91
2023-04-13T23:31:17.417Z,98740.25
2023-04-13T23:33:44.407Z,98740.59
2023-04-13T23:36:11.760Z,98733.78
2023-04-13T23:38:38.898Z,98734.88
2023-04-13T23:41:05.938Z,98727.34
2023-04-13T23:43:32.960Z,98724.28
2023-04-13T23:46:00.034Z,98726.41
2023-04-13T23:48:29.224Z,98713.06
2023-04-13T23:50:57.334Z,98723.44
2023-04-13T23:53:24.735Z,98730.13
2023-04-13T23:55:52.242Z,98735.28
2023-04-13T23:58:19.194Z,98725.00
